createdAt,value
2022-11-27T00:01:35.311Z,6.98
2022-11-27T00:04:02.660Z,6.99
2022-11-27T00:06:32.037Z,6.92
2022-11-27T00:09:01.820Z,6.86
2022-11-27T00:11:31.606Z,6.82
2022-11-27T00:14:00.364Z,6.82
2022-11-27T00:16:29.179Z,6.85
2022-11-27T00:18:56.659Z,6.89
2022-11-27T00:21:29.465Z,6.92
2022-11-27T00:24:00.307Z,6.97
2022-11-27T00:26:34.464Z,6.98
2022-11-27T00:29:05.873Z,7.01
2022-11-27T00:31:35.011Z,7.04
2022-11-27T00:34:06.110Z,7.03
2022-11-27T00:36:34.939Z,7.00
2022-11-27T00:39:03.661Z,7.04
2022-11-27T00:41:31.564Z,7.06
2022-11-27T00:43:59.267Z,7.04
2022-11-27T00:46:33.071Z,7.06
2022-11-27T00:49:04.279Z,6.99
2022-11-27T00:51:32.763Z,6.93
2022-11-27T00:54:00.079Z,6.89
2022-11-27T00:56:32.396Z,6.92
2022-11-27T00:59:00.571Z,6.91
2022-11-27T01:01:34.723Z,6.92
2022-11-27T01:04:04.687Z,6.98
2022-11-27T01:06:32.677Z,7.02
2022-11-27T01:09:00.974Z,7.04
2022-11-27T01:11:31.958Z,7.03
2022-11-27T01:14:04.700Z,7.01
2022-11-27T01:16:34.174Z,6.95
2022-11-27T01:19:03.749Z,6.81
2022-11-27T01:21:34.315Z,6.71
2022-11-27T01:24:05.188Z,6.71
2022-11-27T01:26:32.471Z,6.74
2022-11-27T01:29:00.605Z,6.75
2022-11-27T01:31:31.845Z,6.76
2022-11-27T01:34:09.194Z,6.69
2022-11-27T01:36:36.766Z,6.70
2022-11-27T01:39:05.619Z,6.72
2022-11-27T01:41:39.836Z,6.81
2022-11-27T01:44:25.626Z,6.89
2022-11-27T01:47:18.041Z,6.82
2022-11-27T01:49:52.309Z,6.89
2022-11-27T01:52:27.736Z,6.92
2022-11-27T01:55:19.288Z,6.95
2022-11-27T01:57:53.831Z,6.96
2022-11-27T02:00:22.296Z,6.94
2022-11-27T02:02:50.059Z,6.95
2022-11-27T02:05:24.016Z,6.98
2022-11-27T02:07:53.665Z,6.99
2022-11-27T02:10:28.121Z,7.04
2022-11-27T02:13:14.605Z,7.02
2022-11-27T02:16:08.558Z,6.88
2022-11-27T02:19:04.532Z,6.76
2022-11-27T02:21:44.011Z,6.77
2022-11-27T02:25:02.779Z,6.71
2022-11-27T02:27:53.512Z,6.74
2022-11-27T02:30:20.914Z,6.76
2022-11-27T02:33:00.131Z,6.77
2022-11-27T02:35:43.946Z,6.79
2022-11-27T02:38:23.843Z,6.69
2022-11-27T02:41:07.734Z,6.67
2022-11-27T02:43:44.534Z,6.63
2022-11-27T02:46:14.192Z,6.66
2022-11-27T02:48:52.129Z,6.67
2022-11-27T02:51:28.514Z,6.70
2022-11-27T02:54:02.843Z,6.74
2022-11-27T02:56:33.897Z,6.60
2022-11-27T02:59:07.669Z,6.64
2022-11-27T03:01:43.041Z,6.66
2022-11-27T03:04:21.109Z,6.73
2022-11-27T03:06:55.898Z,6.70
2022-11-27T03:09:38.959Z,6.71
2022-11-27T03:12:10.356Z,6.73
2022-11-27T03:14:42.309Z,6.79
2022-11-27T03:17:52.303Z,6.79
2022-11-27T03:20:25.686Z,6.83
2022-11-27T03:22:57.093Z,6.84
2022-11-27T03:25:25.665Z,6.85
2022-11-27T03:28:04.845Z,6.83
2022-11-27T03:30:32.496Z,6.83
2022-11-27T03:33:01.521Z,6.81
2022-11-27T03:35:29.943Z,6.85
2022-11-27T03:37:57.361Z,6.80
2022-11-27T03:41:04.760Z,6.73
2022-11-27T03:43:46.802Z,6.70
2022-11-27T03:46:32.055Z,6.59
2022-11-27T03:49:24.694Z,6.61
2022-11-27T03:52:16.174Z,6.65
2022-11-27T03:55:08.496Z,6.62
2022-11-27T03:58:00.918Z,6.61
2022-11-27T04:00:38.344Z,6.63
2022-11-27T04:03:10.411Z,6.60
2022-11-27T04:05:38.148Z,6.55
2022-11-27T04:08:06.167Z,6.48
2022-11-27T04:10:33.379Z,6.51
2022-11-27T04:13:00.874Z,6.54
2022-11-27T04:15:28.018Z,6.51
2022-11-27T04:17:55.539Z,6.54
2022-11-27T04:20:22.799Z,6.50
2022-11-27T04:22:50.457Z,6.49
2022-11-27T04:25:17.998Z,6.51
2022-11-27T04:27:46.137Z,6.37
2022-11-27T04:30:14.327Z,6.44
2022-11-27T04:32:42.260Z,6.46
2022-11-27T04:35:10.654Z,6.44
2022-11-27T04:37:38.246Z,6.44
2022-11-27T04:40:06.860Z,6.47
2022-11-27T04:42:34.414Z,6.49
2022-11-27T04:45:01.652Z,6.52
2022-11-27T04:47:29.106Z,6.56
2022-11-27T04:49:56.315Z,6.50
2022-11-27T04:52:23.835Z,6.51
2022-11-27T04:54:55.392Z,6.43
2022-11-27T04:57:26.140Z,6.44
2022-11-27T04:59:53.311Z,6.41
2022-11-27T05:02:20.866Z,6.44
2022-11-27T05:04:48.125Z,6.39
2022-11-27T05:07:15.719Z,6.34
2022-11-27T05:09:43.033Z,6.35
2022-11-27T05:12:10.456Z,6.29
2022-11-27T05:14:37.941Z,6.33
2022-11-27T05:17:05.821Z,6.31
2022-11-27T05:19:33.167Z,6.32
2022-11-27T05:22:00.727Z,6.31
2022-11-27T05:24:29.605Z,6.34
2022-11-27T05:26:57.706Z,6.32
2022-11-27T05:29:26.010Z,6.33
2022-11-27T05:31:54.058Z,6.36
2022-11-27T05:34:21.716Z,6.38
2022-11-27T05:36:49.287Z,6.40
2022-11-27T05:39:16.721Z,6.35
2022-11-27T05:41:44.787Z,6.38
2022-11-27T05:44:15.067Z,6.29
2022-11-27T05:46:44.021Z,6.29
2022-11-27T05:49:16.221Z,6.26
2022-11-27T05:51:50.750Z,6.26
2022-11-27T05:54:19.587Z,6.20
2022-11-27T05:56:47.127Z,6.14
2022-11-27T05:59:15.176Z,6.08
2022-11-27T06:01:43.502Z,6.02
2022-11-27T06:04:10.816Z,5.96
2022-11-27T06:06:38.359Z,5.88
2022-11-27T06:09:10.844Z,5.85
2022-11-27T06:11:41.348Z,5.71
2022-11-27T06:14:11.804Z,5.56
2022-11-27T06:16:39.415Z,5.53
2022-11-27T06:19:07.571Z,5.50
2022-11-27T06:21:35.183Z,5.47
2022-11-27T06:24:03.310Z,5.40
2022-11-27T06:26:33.747Z,5.42
2022-11-27T06:29:01.915Z,5.36
2022-11-27T06:31:32.958Z,5.41
2022-11-27T06:34:00.980Z,5.45
2022-11-27T06:36:34.367Z,5.43
2022-11-27T06:39:04.176Z,5.40
2022-11-27T06:41:32.574Z,5.52
2022-11-27T06:44:01.552Z,5.64
2022-11-27T06:46:30.262Z,5.74
2022-11-27T06:48:58.333Z,5.82
2022-11-27T06:51:29.270Z,5.81
2022-11-27T06:53:57.084Z,5.80
2022-11-27T06:56:27.230Z,5.81
2022-11-27T06:58:58.746Z,5.87
2022-11-27T07:01:29.457Z,5.95
2022-11-27T07:03:57.831Z,5.99
2022-11-27T07:06:27.452Z,6.02
2022-11-27T07:08:56.054Z,6.06
2022-11-27T07:11:27.562Z,6.15
2022-11-27T07:13:58.857Z,6.20
2022-11-27T07:16:29.600Z,6.30
2022-11-27T07:19:04.834Z,6.26
2022-11-27T07:21:33.616Z,6.18
2022-11-27T07:24:01.323Z,6.29
2022-11-27T07:26:30.648Z,6.28
2022-11-27T07:28:58.362Z,6.26
2022-11-27T07:31:30.330Z,6.08
2022-11-27T07:33:58.486Z,6.12
2022-11-27T07:36:31.295Z,6.07
2022-11-27T07:38:58.650Z,6.12
2022-11-27T07:41:32.273Z,5.91
2022-11-27T07:44:01.820Z,5.90
2022-11-27T07:46:30.529Z,5.95
2022-11-27T07:48:58.319Z,6.05
2022-11-27T07:51:26.098Z,6.06
2022-11-27T07:53:53.499Z,6.11
2022-11-27T07:56:21.663Z,6.17
2022-11-27T07:58:49.371Z,6.29
2022-11-27T08:01:19.840Z,6.29
2022-11-27T08:03:47.429Z,6.35
2022-11-27T08:06:22.018Z,6.46
2022-11-27T08:08:50.819Z,6.49
2022-11-27T08:11:29.960Z,6.53
2022-11-27T08:14:01.443Z,6.55
2022-11-27T08:16:30.224Z,6.62
2022-11-27T08:18:58.222Z,6.65
2022-11-27T08:21:27.095Z,6.66
2022-11-27T08:23:55.065Z,6.71
2022-11-27T08:26:22.693Z,6.69
2022-11-27T08:28:52.958Z,6.65
2022-11-27T08:31:21.553Z,6.70
2022-11-27T08:33:49.181Z,6.67
2022-11-27T08:36:18.258Z,6.69
2022-11-27T08:38:47.176Z,6.35
2022-11-27T08:41:15.198Z,6.58
2022-11-27T08:43:42.446Z,6.72
2022-11-27T08:46:11.398Z,6.76
2022-11-27T08:48:38.983Z,6.84
2022-11-27T08:51:11.149Z,6.97
2022-11-27T08:53:38.913Z,7.08
2022-11-27T08:56:11.289Z,7.23
2022-11-27T08:58:41.074Z,7.33
2022-11-27T09:01:21.623Z,7.23
2022-11-27T09:03:49.617Z,7.38
2022-11-27T09:06:21.705Z,7.34
2022-11-27T09:08:49.969Z,7.43
2022-11-27T09:11:20.570Z,7.55
2022-11-27T09:13:48.746Z,7.60
2022-11-27T09:16:20.447Z,7.76
2022-11-27T09:18:52.001Z,7.90
2022-11-27T09:21:22.998Z,8.07
2022-11-27T09:23:54.990Z,8.19
2022-11-27T09:26:24.083Z,8.18
2022-11-27T09:28:53.003Z,8.34
2022-11-27T09:31:22.986Z,8.39
2022-11-27T09:33:50.793Z,8.47
2022-11-27T09:36:23.132Z,8.48
2022-11-27T09:38:50.892Z,8.68
2022-11-27T09:41:47.304Z,8.86
2022-11-27T09:44:43.197Z,9.14
2022-11-27T09:47:20.467Z,9.35
2022-11-27T09:50:13.311Z,9.36
2022-11-27T09:52:54.893Z,9.42
2022-11-27T09:55:37.904Z,9.39
2022-11-27T09:58:22.402Z,9.17
2022-11-27T10:00:49.873Z,8.98
2022-11-27T10:03:28.273Z,8.76
2022-11-27T10:06:24.274Z,8.67
2022-11-27T10:09:56.112Z,8.80
2022-11-27T10:12:44.692Z,9.01
2022-11-27T10:15:42.789Z,9.21
2022-11-27T10:18:22.159Z,9.26
2022-11-27T10:20:58.475Z,9.32
2022-11-27T10:24:00.339Z,9.49
2022-11-27T10:26:55.093Z,9.52
2022-11-27T10:29:38.008Z,9.43
2022-11-27T10:32:53.494Z,9.28
2022-11-27T10:35:17.828Z,9.02
2022-11-27T10:38:23.481Z,9.19
2022-11-27T10:40:54.095Z,9.25
2022-11-27T10:43:25.293Z,9.20
2022-11-27T10:46:17.149Z,9.27
2022-11-27T10:48:45.320Z,9.46
2022-11-27T10:51:22.745Z,9.47
2022-11-27T10:53:54.721Z,9.52
2022-11-27T10:57:15.793Z,9.90
2022-11-27T11:00:19.891Z,10.94
2022-11-27T11:02:47.380Z,12.74
2022-11-27T11:05:45.572Z,14.65
2022-11-27T11:08:21.679Z,19.20
2022-11-27T11:11:04.795Z,21.80
2022-11-27T11:13:40.209Z,21.72
2022-11-27T11:16:24.352Z,21.06
2022-11-27T11:18:55.790Z,19.92
2022-11-27T11:21:30.118Z,18.34
2022-11-27T11:24:13.801Z,17.35
2022-11-27T11:26:49.259Z,16.84
2022-11-27T11:29:54.130Z,16.54
2022-11-27T11:32:21.601Z,15.34
2022-11-27T11:35:03.049Z,14.30
2022-11-27T11:37:44.779Z,14.34
2022-11-27T11:40:16.461Z,13.98
2022-11-27T11:43:04.369Z,14.23
2022-11-27T11:45:35.030Z,14.70
2022-11-27T11:48:27.617Z,15.35
2022-11-27T11:51:23.763Z,19.38
2022-11-27T11:54:41.010Z,24.49
2022-11-27T11:57:46.623Z,27.48
2022-11-27T12:00:18.721Z,28.17
2022-11-27T12:02:46.717Z,26.44
2022-11-27T12:06:10.674Z,27.21
2022-11-27T12:08:59.739Z,29.43
2022-11-27T12:12:17.308Z,30.50
2022-11-27T12:14:59.821Z,31.07
2022-11-27T12:18:06.336Z,31.93
2022-11-27T12:20:58.429Z,31.66
2022-11-27T12:24:09.347Z,29.61
2022-11-27T12:26:48.439Z,26.10
2022-11-27T12:29:54.629Z,24.34
2022-11-27T12:32:43.988Z,27.20
2022-11-27T12:35:34.635Z,29.15
2022-11-27T12:38:45.353Z,29.07
2022-11-27T12:41:42.848Z,28.15
2022-11-27T12:44:47.413Z,29.99
2022-11-27T12:47:28.393Z,29.35
2022-11-27T12:50:14.893Z,25.93
2022-11-27T12:52:54.405Z,23.37
2022-11-27T12:55:27.575Z,20.73
2022-11-27T12:58:04.925Z,19.35
2022-11-27T13:00:40.973Z,18.53
2022-11-27T13:04:02.805Z,17.51
2022-11-27T13:06:48.614Z,16.65
2022-11-27T13:09:28.801Z,15.67
2022-11-27T13:11:57.081Z,15.34
2022-11-27T13:14:28.175Z,16.28
2022-11-27T13:17:09.807Z,15.74
2022-11-27T13:19:49.747Z,15.25
2022-11-27T13:22:34.766Z,14.56
2022-11-27T13:25:03.895Z,14.31
2022-11-27T13:27:37.325Z,14.03
2022-11-27T13:30:09.923Z,13.91
2022-11-27T13:32:43.786Z,13.72
2022-11-27T13:35:42.104Z,13.31
2022-11-27T13:38:24.048Z,12.99
2022-11-27T13:40:58.657Z,13.05
2022-11-27T13:43:45.471Z,12.98
2022-11-27T13:46:25.203Z,12.91
2022-11-27T13:49:05.979Z,12.61
2022-11-27T13:51:37.995Z,13.30
2022-11-27T13:54:12.704Z,14.91
2022-11-27T13:56:41.109Z,15.10
2022-11-27T13:59:25.877Z,14.46
2022-11-27T14:02:00.533Z,13.45
2022-11-27T14:04:31.068Z,13.06
2022-11-27T14:07:11.849Z,12.66
2022-11-27T14:09:54.244Z,12.20
2022-11-27T14:12:30.778Z,11.97
2022-11-27T14:15:18.099Z,11.59
2022-11-27T14:17:50.101Z,11.23
2022-11-27T14:20:17.585Z,11.03
2022-11-27T14:23:10.049Z,10.68
2022-11-27T14:25:36.603Z,10.42
2022-11-27T14:28:15.942Z,10.22
2022-11-27T14:30:57.264Z,9.79
2022-11-27T14:33:31.119Z,9.69
2022-11-27T14:36:06.055Z,9.50
2022-11-27T14:38:35.478Z,9.43
2022-11-27T14:41:18.279Z,9.27
2022-11-27T14:43:46.197Z,9.22
2022-11-27T14:46:22.200Z,9.16
2022-11-27T14:48:56.420Z,9.03
2022-11-27T14:51:31.053Z,8.96
2022-11-27T14:54:09.929Z,8.72
2022-11-27T14:56:43.391Z,8.70
2022-11-27T14:59:18.183Z,8.65
2022-11-27T15:01:57.734Z,8.65
2022-11-27T15:04:38.780Z,8.60
2022-11-27T15:07:25.172Z,8.58
2022-11-27T15:09:56.771Z,8.58
2022-11-27T15:12:48.349Z,8.56
2022-11-27T15:15:22.719Z,8.46
2022-11-27T15:17:56.522Z,8.45
2022-11-27T15:20:37.385Z,8.48
2022-11-27T15:23:14.369Z,8.28
2022-11-27T15:25:46.451Z,8.05
2022-11-27T15:28:32.577Z,7.91
2022-11-27T15:31:00.414Z,7.97
2022-11-27T15:33:34.258Z,7.89
2022-11-27T15:36:20.961Z,7.73
2022-11-27T15:38:51.089Z,7.61
2022-11-27T15:41:30.283Z,7.54
2022-11-27T15:43:57.592Z,7.55
2022-11-27T15:46:33.045Z,7.49
2022-11-27T15:49:00.345Z,7.40
2022-11-27T15:51:29.225Z,7.33
2022-11-27T15:54:02.769Z,7.24
2022-11-27T15:56:30.369Z,7.36
2022-11-27T15:58:57.624Z,7.41
2022-11-27T16:01:25.179Z,7.50
2022-11-27T16:03:52.432Z,7.58
2022-11-27T16:06:23.468Z,7.60
2022-11-27T16:09:01.733Z,7.34
2022-11-27T16:11:31.421Z,7.23
2022-11-27T16:13:58.941Z,7.22
2022-11-27T16:16:27.091Z,7.26
2022-11-27T16:19:01.240Z,7.26
2022-11-27T16:21:30.343Z,7.36
2022-11-27T16:24:04.550Z,7.31
2022-11-27T16:26:32.842Z,7.17
2022-11-27T16:29:00.507Z,7.08
2022-11-27T16:31:28.822Z,6.99
2022-11-27T16:33:56.904Z,6.90
2022-11-27T16:36:24.660Z,6.77
2022-11-27T16:38:54.512Z,6.77
2022-11-27T16:41:23.453Z,6.78
2022-11-27T16:43:53.955Z,6.69
2022-11-27T16:46:27.956Z,6.60
2022-11-27T16:48:58.920Z,6.49
2022-11-27T16:51:32.167Z,6.35
2022-11-27T16:54:05.703Z,6.29
2022-11-27T16:56:35.170Z,6.09
2022-11-27T16:59:03.531Z,5.89
2022-11-27T17:01:35.847Z,5.97
2022-11-27T17:04:09.251Z,5.92
2022-11-27T17:06:39.172Z,5.90
2022-11-27T17:09:08.667Z,5.89
2022-11-27T17:11:41.097Z,5.81
2022-11-27T17:14:09.824Z,5.76
2022-11-27T17:16:41.342Z,5.72
2022-11-27T17:19:13.548Z,5.62
2022-11-27T17:21:42.174Z,5.46
2022-11-27T17:24:15.957Z,5.36
2022-11-27T17:26:45.959Z,5.43
2022-11-27T17:29:17.894Z,5.37
2022-11-27T17:31:45.646Z,5.31
2022-11-27T17:34:15.601Z,5.25
2022-11-27T17:36:45.171Z,5.22
2022-11-27T17:39:15.719Z,5.08
2022-11-27T17:41:45.256Z,5.13
2022-11-27T17:44:13.016Z,5.12
2022-11-27T17:46:40.918Z,5.06
2022-11-27T17:49:08.531Z,5.04
2022-11-27T17:51:38.776Z,5.01
2022-11-27T17:54:08.014Z,5.04
2022-11-27T17:56:35.662Z,5.07
2022-11-27T17:59:03.419Z,5.05
2022-11-27T18:01:33.826Z,5.05
2022-11-27T18:04:03.987Z,5.02
2022-11-27T18:06:32.507Z,5.01
2022-11-27T18:09:00.153Z,4.99
2022-11-27T18:11:32.082Z,4.99
2022-11-27T18:13:59.934Z,4.95
2022-11-27T18:16:37.696Z,4.90
2022-11-27T18:19:11.249Z,4.90
2022-11-27T18:21:39.877Z,4.88
2022-11-27T18:24:23.041Z,4.86
2022-11-27T18:27:07.652Z,4.90
2022-11-27T18:29:42.517Z,4.93
2022-11-27T18:32:12.947Z,4.97
2022-11-27T18:34:41.515Z,5.03
2022-11-27T18:37:10.893Z,5.09
2022-11-27T18:39:40.405Z,5.16
2022-11-27T18:42:08.472Z,5.19
2022-11-27T18:44:44.302Z,5.16
2022-11-27T18:47:15.799Z,5.16
2022-11-27T18:49:43.684Z,5.11
2022-11-27T18:52:11.814Z,5.03
2022-11-27T18:54:39.538Z,4.99
2022-11-27T18:57:07.240Z,4.97
2022-11-27T18:59:35.261Z,4.98
2022-11-27T19:02:04.530Z,4.91
2022-11-27T19:04:34.469Z,4.79
2022-11-27T19:07:02.019Z,4.78
2022-11-27T19:09:29.440Z,4.79
2022-11-27T19:11:57.773Z,4.77
2022-11-27T19:14:25.241Z,4.81
2022-11-27T19:16:52.983Z,4.81
2022-11-27T19:22:09.486Z,4.73
2022-11-27T19:24:38.135Z,4.66
2022-11-27T19:27:05.768Z,4.60
2022-11-27T19:29:33.178Z,4.60
2022-11-27T19:32:03.238Z,4.50
2022-11-27T19:34:30.782Z,4.44
2022-11-27T19:36:58.554Z,4.36
2022-11-27T19:39:27.362Z,4.32
2022-11-27T19:41:55.412Z,4.31
2022-11-27T19:44:22.628Z,4.37
2022-11-27T19:46:50.188Z,4.25
2022-11-27T19:49:18.243Z,4.10
2022-11-27T19:51:46.248Z,4.06
2022-11-27T19:54:15.758Z,3.91
2022-11-27T19:56:43.666Z,3.74
2022-11-27T19:59:12.600Z,3.70
2022-11-27T20:01:40.849Z,3.63
2022-11-27T20:04:11.745Z,3.47
2022-11-27T20:06:39.896Z,3.61
2022-11-27T20:09:08.045Z,3.70
2022-11-27T20:11:36.484Z,3.70
2022-11-27T20:14:05.695Z,3.68
2022-11-27T20:16:36.249Z,3.64
2022-11-27T20:19:06.136Z,3.46
2022-11-27T20:21:34.024Z,3.47
2022-11-27T20:24:02.251Z,3.38
2022-11-27T20:26:30.851Z,3.37
2022-11-27T20:28:58.934Z,3.45
2022-11-27T20:31:31.927Z,3.31
2022-11-27T20:34:03.472Z,3.33
2022-11-27T20:36:38.329Z,3.36
2022-11-27T20:39:06.435Z,3.38
2022-11-27T20:41:34.012Z,3.36
2022-11-27T20:44:04.772Z,3.32
2022-11-27T20:46:33.517Z,3.34
2022-11-27T20:49:01.292Z,3.36
2022-11-27T20:51:34.160Z,3.32
2022-11-27T20:54:03.208Z,3.36
2022-11-27T20:56:31.635Z,3.34
2022-11-27T20:58:59.883Z,3.34
2022-11-27T21:01:34.101Z,3.36
2022-11-27T21:04:09.471Z,3.37
2022-11-27T21:06:43.894Z,3.38
2022-11-27T21:09:13.984Z,3.32
2022-11-27T21:11:42.845Z,3.32
2022-11-27T21:14:13.466Z,3.34
2022-11-27T21:16:48.272Z,3.34
2022-11-27T21:19:26.940Z,3.30
2022-11-27T21:21:55.580Z,3.33
2022-11-27T21:24:25.849Z,3.31
2022-11-27T21:26:53.564Z,3.26
2022-11-27T21:29:25.578Z,3.26
2022-11-27T21:31:53.995Z,3.23
2022-11-27T21:34:21.284Z,3.24
2022-11-27T21:36:49.330Z,3.27
2022-11-27T21:39:23.913Z,3.24
2022-11-27T21:41:55.179Z,3.30
2022-11-27T21:44:24.170Z,3.26
2022-11-27T21:46:52.474Z,3.25
2022-11-27T21:49:21.375Z,3.27
2022-11-27T21:51:54.175Z,3.20
2022-11-27T21:54:22.325Z,3.27
2022-11-27T21:56:53.552Z,3.11
2022-11-27T21:59:20.935Z,3.07
2022-11-27T22:01:48.559Z,2.99
2022-11-27T22:04:16.389Z,2.98
2022-11-27T22:06:45.272Z,2.82
2022-11-27T22:09:15.678Z,2.97
2022-11-27T22:11:46.252Z,3.01
2022-11-27T22:14:16.177Z,2.91
2022-11-27T22:16:46.432Z,2.78
2022-11-27T22:19:15.083Z,2.74
2022-11-27T22:21:44.657Z,2.66
2022-11-27T22:24:18.425Z,2.68
2022-11-27T22:26:48.185Z,2.58
2022-11-27T22:29:15.764Z,2.77
2022-11-27T22:31:43.380Z,2.82
2022-11-27T22:34:10.647Z,2.89
2022-11-27T22:36:38.708Z,2.90
2022-11-27T22:39:08.819Z,2.83
2022-11-27T22:41:40.132Z,2.79
2022-11-27T22:44:25.487Z,2.80
2022-11-27T22:46:53.030Z,2.80
2022-11-27T22:49:20.412Z,2.85
2022-11-27T22:51:48.182Z,2.82
2022-11-27T22:54:17.319Z,2.80
2022-11-27T22:56:45.920Z,2.90
2022-11-27T23:02:01.667Z,2.67
2022-11-27T23:04:29.392Z,2.75
2022-11-27T23:06:56.894Z,2.86
2022-11-27T23:09:24.351Z,2.78
2022-11-27T23:11:52.010Z,2.75
2022-11-27T23:14:19.272Z,2.82
2022-11-27T23:16:46.794Z,2.78
2022-11-27T23:19:14.098Z,2.76
2022-11-27T23:21:42.017Z,2.64
2022-11-27T23:24:15.312Z,2.69
2022-11-27T23:26:43.971Z,2.57
2022-11-27T23:29:11.606Z,2.49
2022-11-27T23:31:39.356Z,2.71
2022-11-27T23:34:16.166Z,2.62
2022-11-27T23:36:44.585Z,2.57
2022-11-27T23:39:13.546Z,2.54
2022-11-27T23:41:41.845Z,2.57
2022-11-27T23:44:09.760Z,2.62
2022-11-27T23:46:37.308Z,2.60
2022-11-27T23:49:04.678Z,2.63
2022-11-27T23:51:33.636Z,2.58
2022-11-27T23:54:01.891Z,2.64
2022-11-27T23:56:32.050Z,2.63
2022-11-27T23:59:00.636Z,2.73
